Millenium Air

Millenium Air Since 1998



 METAR AND TAF INFORMATION
METAR FOR LEZL
ADDS - METARS form results

(0238 UTC 22 April 2021)
Data provider http://aviationweather.gov/metar/data/
 
METAR text: LEZL 220230Z AUTO 21005KT 150V260 9999 SCT031 BKN039 BKN047 16/13 Q1012
Conditions at: LEZL (SEVILLA (CIV/MIL, ES) observed 0230 UTC 22 April 2021
Temperature: 16.0°C (61°F)
Dewpoint: 13.0°C (55°F) [RH = 82%]
Pressure (altimeter): 29.88 inches Hg (1012.0 mb)
Winds: from the SSW (210 degrees) at 6 MPH (5 knots; 2.6 m/s)
Visibility: 6 or more miles (10+ km)
Ceiling: 3900 feet AGL
Clouds: scattered clouds at 3100 feet AGL
broken clouds at 3900 feet AGL
broken clouds at 4700 feet AGL
Weather: no significant weather observed at this time

METAR text: LEZL 220200Z AUTO 18004KT 140V230 CAVOK 16/13 Q1013
Conditions at: LEZL (SEVILLA (CIV/MIL, ES) observed 0200 UTC 22 April 2021
Temperature: 16.0°C (61°F)
Dewpoint: 13.0°C (55°F) [RH = 82%]
Pressure (altimeter): 29.91 inches Hg (1013.0 mb)
Winds: from the S (180 degrees) at 5 MPH (4 knots; 2.1 m/s)
Visibility: 6 or more miles (10+ km)
Ceiling: ceiling and visibility are OK
Clouds: unknown
Weather: no significant weather observed at this time

Forecast for: LEZL (SEVILLA (CIV/MIL, ES)
Text: TAF LEZL 220200Z 2203/2303 23007KT 9999 FEW040 TX25/2215Z TN13/2206Z
Forecast period: 0300 UTC 22 April 2021 to 0300 UTC 23 April 2021
Forecast type: FROM: standard forecast or significant change
Winds: from the SW (230 degrees) at 8 MPH (7 knots; 3.6 m/s)
Visibility: 6 or more miles (10+ km)
Ceiling: at least 12,000 feet AGL
Clouds: few clouds at 4000 feet AGL
Weather: no significant weather forecast for this period

 AIRPORT MAP

 RUNWAY INFORMATION
Runway 09 Runway length 11024 ft Runway width 148 ft
Runway elevation 83 ft Runway displaced threshold 0 ft Runway heading 90
Runway 27 Runway length 11024 ft Runway width 148 ft
Runway elevation 111 ft Runway displaced threshold 0 ft Runway heading 270

 AIRPORT FREQUENCIES
Type APP Name APP Frequency 120 MHZ
Type ATIS Name ATIS Frequency 118.175 MHZ
Type GND Name GND Frequency 121.7 MHZ
Type TWR Name TWR Frequency 118.1 MHZ

 AIRPORT NEAR NAVIGATION AIDS
Type NDB Name Sevilla Frequency 420 KHZ
Type VOR-DME Name Sevilla Frequency 113700 KHZ